sensor_id;sensor_type;location;lat;lon;timestamp;temperature;humidity
19281;DHT22;9774;52.034;5.342;2023-10-31T00:01:38;14.80;69.80
19281;DHT22;9774;52.034;5.342;2023-10-31T00:04:05;14.80;69.90
19281;DHT22;9774;52.034;5.342;2023-10-31T00:06:32;14.80;70.00
19281;DHT22;9774;52.034;5.342;2023-10-31T00:09:00;14.80;70.00
19281;DHT22;9774;52.034;5.342;2023-10-31T00:11:27;14.80;70.00
19281;DHT22;9774;52.034;5.342;2023-10-31T00:13:54;14.80;70.40
19281;DHT22;9774;52.034;5.342;2023-10-31T00:16:21;14.80;70.00
19281;DHT22;9774;52.034;5.342;2023-10-31T00:18:49;14.80;70.00
19281;DHT22;9774;52.034;5.342;2023-10-31T00:21:16;14.80;70.00
19281;DHT22;9774;52.034;5.342;2023-10-31T00:23:43;14.80;70.00
19281;DHT22;9774;52.034;5.342;2023-10-31T00:26:12;14.80;70.00
19281;DHT22;9774;52.034;5.342;2023-10-31T00:28:39;14.80;70.00
19281;DHT22;9774;52.034;5.342;2023-10-31T00:31:06;14.80;70.00
19281;DHT22;9774;52.034;5.342;2023-10-31T00:33:36;14.80;70.00
19281;DHT22;9774;52.034;5.342;2023-10-31T00:36:04;14.80;70.10
19281;DHT22;9774;52.034;5.342;2023-10-31T00:38:31;14.80;70.10
19281;DHT22;9774;52.034;5.342;2023-10-31T00:40:58;14.80;70.10
19281;DHT22;9774;52.034;5.342;2023-10-31T00:43:26;14.80;70.20
19281;DHT22;9774;52.034;5.342;2023-10-31T00:45:53;14.80;70.20
19281;DHT22;9774;52.034;5.342;2023-10-31T00:48:21;14.80;70.20
19281;DHT22;9774;52.034;5.342;2023-10-31T00:50:47;14.80;70.20
19281;DHT22;9774;52.034;5.342;2023-10-31T00:53:14;14.80;70.20
19281;DHT22;9774;52.034;5.342;2023-10-31T00:55:42;14.80;70.20
19281;DHT22;9774;52.034;5.342;2023-10-31T00:58:09;14.80;70.20
19281;DHT22;9774;52.034;5.342;2023-10-31T01:00:43;14.80;70.30
19281;DHT22;9774;52.034;5.342;2023-10-31T01:03:10;14.80;70.50
19281;DHT22;9774;52.034;5.342;2023-10-31T01:05:37;14.80;70.30
19281;DHT22;9774;52.034;5.342;2023-10-31T01:08:04;14.80;70.30
19281;DHT22;9774;52.034;5.342;2023-10-31T01:10:31;14.80;70.30
19281;DHT22;9774;52.034;5.342;2023-10-31T01:12:58;14.80;70.30
19281;DHT22;9774;52.034;5.342;2023-10-31T01:15:25;14.80;70.30
19281;DHT22;9774;52.034;5.342;2023-10-31T01:17:54;14.80;70.30
19281;DHT22;9774;52.034;5.342;2023-10-31T01:20:20;14.80;70.40
19281;DHT22;9774;52.034;5.342;2023-10-31T01:22:47;14.80;70.40
19281;DHT22;9774;52.034;5.342;2023-10-31T01:25:14;14.80;70.40
19281;DHT22;9774;52.034;5.342;2023-10-31T01:27:41;14.90;70.40
19281;DHT22;9774;52.034;5.342;2023-10-31T01:30:09;14.90;70.40
19281;DHT22;9774;52.034;5.342;2023-10-31T01:32:37;14.90;70.30
19281;DHT22;9774;52.034;5.342;2023-10-31T01:35:06;14.90;70.40
19281;DHT22;9774;52.034;5.342;2023-10-31T01:37:33;14.90;70.50
19281;DHT22;9774;52.034;5.342;2023-10-31T01:40:01;14.90;70.40
19281;DHT22;9774;52.034;5.342;2023-10-31T01:42:27;14.90;70.50
19281;DHT22;9774;52.034;5.342;2023-10-31T01:44:54;14.90;70.50
19281;DHT22;9774;52.034;5.342;2023-10-31T01:47:21;14.90;70.50
19281;DHT22;9774;52.034;5.342;2023-10-31T01:49:50;14.90;70.40
19281;DHT22;9774;52.034;5.342;2023-10-31T01:52:19;14.90;70.40
19281;DHT22;9774;52.034;5.342;2023-10-31T01:54:46;14.90;70.40
19281;DHT22;9774;52.034;5.342;2023-10-31T01:57:13;14.90;70.40
19281;DHT22;9774;52.034;5.342;2023-10-31T01:59:41;14.90;70.40
19281;DHT22;9774;52.034;5.342;2023-10-31T02:02:08;15.00;70.40
19281;DHT22;9774;52.034;5.342;2023-10-31T02:04:35;15.00;70.40
19281;DHT22;9774;52.034;5.342;2023-10-31T02:07:02;14.90;70.40
19281;DHT22;9774;52.034;5.342;2023-10-31T02:09:31;15.00;70.40
19281;DHT22;9774;52.034;5.342;2023-10-31T02:11:59;14.90;70.40
19281;DHT22;9774;52.034;5.342;2023-10-31T02:14:26;15.00;70.40
19281;DHT22;9774;52.034;5.342;2023-10-31T02:16:53;15.00;70.40
19281;DHT22;9774;52.034;5.342;2023-10-31T02:19:20;15.00;70.50
19281;DHT22;9774;52.034;5.342;2023-10-31T02:21:49;15.00;70.60
19281;DHT22;9774;52.034;5.342;2023-10-31T02:24:16;15.00;70.60
19281;DHT22;9774;52.034;5.342;2023-10-31T02:26:43;14.90;70.60
19281;DHT22;9774;52.034;5.342;2023-10-31T02:29:10;15.00;70.60
19281;DHT22;9774;52.034;5.342;2023-10-31T02:31:38;15.00;71.00
19281;DHT22;9774;52.034;5.342;2023-10-31T02:34:05;15.00;70.60
19281;DHT22;9774;52.034;5.342;2023-10-31T02:36:32;15.00;70.60
19281;DHT22;9774;52.034;5.342;2023-10-31T02:39:00;15.00;70.70
19281;DHT22;9774;52.034;5.342;2023-10-31T02:41:27;15.00;70.70
19281;DHT22;9774;52.034;5.342;2023-10-31T02:43:54;15.00;70.70
19281;DHT22;9774;52.034;5.342;2023-10-31T02:46:22;15.00;70.70
19281;DHT22;9774;52.034;5.342;2023-10-31T02:48:49;15.00;70.70
19281;DHT22;9774;52.034;5.342;2023-10-31T02:51:17;15.00;70.80
19281;DHT22;9774;52.034;5.342;2023-10-31T02:53:44;14.90;70.70
19281;DHT22;9774;52.034;5.342;2023-10-31T02:56:12;15.00;70.80
19281;DHT22;9774;52.034;5.342;2023-10-31T02:58:39;15.00;70.80
19281;DHT22;9774;52.034;5.342;2023-10-31T03:01:06;15.00;70.80
19281;DHT22;9774;52.034;5.342;2023-10-31T03:03:33;15.00;70.80
19281;DHT22;9774;52.034;5.342;2023-10-31T03:06:00;15.00;70.80
19281;DHT22;9774;52.034;5.342;2023-10-31T03:08:28;15.00;70.80
19281;DHT22;9774;52.034;5.342;2023-10-31T03:10:54;15.00;70.80
19281;DHT22;9774;52.034;5.342;2023-10-31T03:13:23;15.00;70.80
19281;DHT22;9774;52.034;5.342;2023-10-31T03:15:50;15.00;70.80
19281;DHT22;9774;52.034;5.342;2023-10-31T03:18:17;15.00;70.80
19281;DHT22;9774;52.034;5.342;2023-10-31T03:20:44;15.00;70.80
19281;DHT22;9774;52.034;5.342;2023-10-31T03:23:12;15.00;70.70
19281;DHT22;9774;52.034;5.342;2023-10-31T03:25:39;15.00;70.70
19281;DHT22;9774;52.034;5.342;2023-10-31T03:28:17;15.00;70.70
19281;DHT22;9774;52.034;5.342;2023-10-31T03:30:47;15.00;70.80
19281;DHT22;9774;52.034;5.342;2023-10-31T03:33:15;15.00;70.70
19281;DHT22;9774;52.034;5.342;2023-10-31T03:35:42;15.00;70.70
19281;DHT22;9774;52.034;5.342;2023-10-31T03:38:10;15.00;70.60
19281;DHT22;9774;52.034;5.342;2023-10-31T03:40:37;15.00;70.60
19281;DHT22;9774;52.034;5.342;2023-10-31T03:43:04;15.00;70.60
19281;DHT22;9774;52.034;5.342;2023-10-31T03:45:31;15.00;70.60
19281;DHT22;9774;52.034;5.342;2023-10-31T03:47:59;15.00;70.60
19281;DHT22;9774;52.034;5.342;2023-10-31T03:50:26;15.00;70.60
19281;DHT22;9774;52.034;5.342;2023-10-31T03:52:54;14.90;70.50
19281;DHT22;9774;52.034;5.342;2023-10-31T03:55:21;15.00;70.60
19281;DHT22;9774;52.034;5.342;2023-10-31T03:57:48;15.00;70.50
19281;DHT22;9774;52.034;5.342;2023-10-31T04:00:15;15.00;70.60
19281;DHT22;9774;52.034;5.342;2023-10-31T04:02:43;14.90;70.50
19281;DHT22;9774;52.034;5.342;2023-10-31T04:05:11;15.00;70.50
19281;DHT22;9774;52.034;5.342;2023-10-31T04:07:38;15.00;70.50
19281;DHT22;9774;52.034;5.342;2023-10-31T04:10:06;15.00;70.50
19281;DHT22;9774;52.034;5.342;2023-10-31T04:12:34;14.90;70.50
19281;DHT22;9774;52.034;5.342;2023-10-31T04:15:02;14.90;70.50
19281;DHT22;9774;52.034;5.342;2023-10-31T04:17:29;14.90;70.60
19281;DHT22;9774;52.034;5.342;2023-10-31T04:19:56;14.90;70.50
19281;DHT22;9774;52.034;5.342;2023-10-31T04:22:25;15.00;70.60
19281;DHT22;9774;52.034;5.342;2023-10-31T04:24:52;14.90;70.60
19281;DHT22;9774;52.034;5.342;2023-10-31T04:27:19;14.90;70.60
19281;DHT22;9774;52.034;5.342;2023-10-31T04:29:46;15.00;70.60
19281;DHT22;9774;52.034;5.342;2023-10-31T04:32:13;14.90;70.40
19281;DHT22;9774;52.034;5.342;2023-10-31T04:34:40;14.90;70.40
19281;DHT22;9774;52.034;5.342;2023-10-31T04:37:07;14.90;70.40
19281;DHT22;9774;52.034;5.342;2023-10-31T04:39:35;14.90;70.30
19281;DHT22;9774;52.034;5.342;2023-10-31T04:42:02;14.90;70.20
19281;DHT22;9774;52.034;5.342;2023-10-31T04:44:30;14.90;70.20
19281;DHT22;9774;52.034;5.342;2023-10-31T04:46:57;14.90;70.20
19281;DHT22;9774;52.034;5.342;2023-10-31T04:49:24;14.90;70.20
19281;DHT22;9774;52.034;5.342;2023-10-31T04:51:51;14.90;70.20
19281;DHT22;9774;52.034;5.342;2023-10-31T04:54:17;14.90;70.10
19281;DHT22;9774;52.034;5.342;2023-10-31T04:56:47;14.90;70.10
19281;DHT22;9774;52.034;5.342;2023-10-31T04:59:14;14.90;70.10
19281;DHT22;9774;52.034;5.342;2023-10-31T05:01:41;14.90;70.10
19281;DHT22;9774;52.034;5.342;2023-10-31T05:04:08;14.90;70.10
19281;DHT22;9774;52.034;5.342;2023-10-31T05:06:35;14.80;70.10
19281;DHT22;9774;52.034;5.342;2023-10-31T05:09:02;14.80;70.10
19281;DHT22;9774;52.034;5.342;2023-10-31T05:11:30;14.90;70.10
19281;DHT22;9774;52.034;5.342;2023-10-31T05:13:58;14.80;70.00
19281;DHT22;9774;52.034;5.342;2023-10-31T05:16:25;14.80;70.10
19281;DHT22;9774;52.034;5.342;2023-10-31T05:18:53;14.80;70.10
19281;DHT22;9774;52.034;5.342;2023-10-31T05:21:20;14.80;70.00
19281;DHT22;9774;52.034;5.342;2023-10-31T05:23:49;14.80;70.00
19281;DHT22;9774;52.034;5.342;2023-10-31T05:26:16;14.80;70.00
19281;DHT22;9774;52.034;5.342;2023-10-31T05:28:43;14.80;70.00
19281;DHT22;9774;52.034;5.342;2023-10-31T05:31:11;14.80;70.00
19281;DHT22;9774;52.034;5.342;2023-10-31T05:33:42;14.80;70.00
19281;DHT22;9774;52.034;5.342;2023-10-31T05:36:17;14.80;70.00
19281;DHT22;9774;52.034;5.342;2023-10-31T05:38:45;14.70;69.90
19281;DHT22;9774;52.034;5.342;2023-10-31T05:41:12;14.70;69.90
19281;DHT22;9774;52.034;5.342;2023-10-31T05:43:39;14.70;69.90
19281;DHT22;9774;52.034;5.342;2023-10-31T05:46:06;14.70;70.00
19281;DHT22;9774;52.034;5.342;2023-10-31T05:48:38;14.70;70.00
19281;DHT22;9774;52.034;5.342;2023-10-31T05:51:10;14.70;70.00
19281;DHT22;9774;52.034;5.342;2023-10-31T05:53:38;14.70;70.00
19281;DHT22;9774;52.034;5.342;2023-10-31T05:56:07;14.70;70.00
19281;DHT22;9774;52.034;5.342;2023-10-31T05:58:35;14.70;70.10
19281;DHT22;9774;52.034;5.342;2023-10-31T06:01:03;14.60;70.00
19281;DHT22;9774;52.034;5.342;2023-10-31T06:03:30;14.60;70.00
19281;DHT22;9774;52.034;5.342;2023-10-31T06:05:59;14.60;69.90
19281;DHT22;9774;52.034;5.342;2023-10-31T06:08:27;14.60;69.90
19281;DHT22;9774;52.034;5.342;2023-10-31T06:10:55;14.60;70.00
19281;DHT22;9774;52.034;5.342;2023-10-31T06:13:23;14.60;70.00
19281;DHT22;9774;52.034;5.342;2023-10-31T06:15:51;14.60;70.00
19281;DHT22;9774;52.034;5.342;2023-10-31T06:18:18;14.60;70.00
19281;DHT22;9774;52.034;5.342;2023-10-31T06:20:45;14.60;70.10
19281;DHT22;9774;52.034;5.342;2023-10-31T06:23:13;14.50;70.00
19281;DHT22;9774;52.034;5.342;2023-10-31T06:25:40;14.60;70.10
19281;DHT22;9774;52.034;5.342;2023-10-31T06:28:07;14.50;70.10
19281;DHT22;9774;52.034;5.342;2023-10-31T06:30:34;14.50;70.10
19281;DHT22;9774;52.034;5.342;2023-10-31T06:33:01;14.50;70.10
19281;DHT22;9774;52.034;5.342;2023-10-31T06:35:28;14.50;70.10
19281;DHT22;9774;52.034;5.342;2023-10-31T06:37:56;14.50;70.10
19281;DHT22;9774;52.034;5.342;2023-10-31T06:40:25;14.50;70.10
19281;DHT22;9774;52.034;5.342;2023-10-31T06:42:52;14.50;70.20
19281;DHT22;9774;52.034;5.342;2023-10-31T06:45:19;14.50;70.30
19281;DHT22;9774;52.034;5.342;2023-10-31T06:47:46;14.50;70.20
19281;DHT22;9774;52.034;5.342;2023-10-31T06:50:13;14.50;70.20
19281;DHT22;9774;52.034;5.342;2023-10-31T06:52:41;14.50;70.20
19281;DHT22;9774;52.034;5.342;2023-10-31T06:55:08;14.50;70.20
19281;DHT22;9774;52.034;5.342;2023-10-31T06:57:36;14.50;70.20
19281;DHT22;9774;52.034;5.342;2023-10-31T07:00:05;14.50;70.20
19281;DHT22;9774;52.034;5.342;2023-10-31T07:02:34;14.40;70.20
19281;DHT22;9774;52.034;5.342;2023-10-31T07:05:01;14.50;70.20
19281;DHT22;9774;52.034;5.342;2023-10-31T07:07:29;14.40;70.20
19281;DHT22;9774;52.034;5.342;2023-10-31T07:09:56;14.40;70.20
19281;DHT22;9774;52.034;5.342;2023-10-31T07:12:23;14.40;70.20
19281;DHT22;9774;52.034;5.342;2023-10-31T07:14:52;14.40;70.30
19281;DHT22;9774;52.034;5.342;2023-10-31T07:17:19;14.40;70.40
19281;DHT22;9774;52.034;5.342;2023-10-31T07:19:46;14.40;70.40
19281;DHT22;9774;52.034;5.342;2023-10-31T07:22:13;14.40;70.50
19281;DHT22;9774;52.034;5.342;2023-10-31T07:24:41;14.40;70.60
19281;DHT22;9774;52.034;5.342;2023-10-31T07:27:09;14.40;70.70
19281;DHT22;9774;52.034;5.342;2023-10-31T07:29:39;14.40;70.80
19281;DHT22;9774;52.034;5.342;2023-10-31T07:32:08;14.50;70.90
19281;DHT22;9774;52.034;5.342;2023-10-31T07:34:36;14.50;70.90
19281;DHT22;9774;52.034;5.342;2023-10-31T07:37:03;14.50;70.90
19281;DHT22;9774;52.034;5.342;2023-10-31T07:39:30;14.50;70.90
19281;DHT22;9774;52.034;5.342;2023-10-31T07:41:57;14.50;71.00
19281;DHT22;9774;52.034;5.342;2023-10-31T07:44:24;14.60;71.10
19281;DHT22;9774;52.034;5.342;2023-10-31T07:46:51;14.60;71.20
19281;DHT22;9774;52.034;5.342;2023-10-31T07:49:19;14.60;71.30
19281;DHT22;9774;52.034;5.342;2023-10-31T07:51:48;14.70;71.40
19281;DHT22;9774;52.034;5.342;2023-10-31T07:54:15;14.70;71.50
19281;DHT22;9774;52.034;5.342;2023-10-31T07:56:42;14.80;71.60
19281;DHT22;9774;52.034;5.342;2023-10-31T07:59:09;14.90;71.70
19281;DHT22;9774;52.034;5.342;2023-10-31T08:01:36;14.90;71.90
19281;DHT22;9774;52.034;5.342;2023-10-31T08:04:04;14.90;71.70
19281;DHT22;9774;52.034;5.342;2023-10-31T08:06:32;15.00;71.70
19281;DHT22;9774;52.034;5.342;2023-10-31T08:08:59;15.10;71.70
19281;DHT22;9774;52.034;5.342;2023-10-31T08:11:26;15.10;71.60
19281;DHT22;9774;52.034;5.342;2023-10-31T08:13:53;15.20;71.50
19281;DHT22;9774;52.034;5.342;2023-10-31T08:16:20;15.20;71.70
19281;DHT22;9774;52.034;5.342;2023-10-31T08:18:48;15.20;71.20
19281;DHT22;9774;52.034;5.342;2023-10-31T08:21:15;15.30;71.30
19281;DHT22;9774;52.034;5.342;2023-10-31T08:23:44;15.30;71.20
19281;DHT22;9774;52.034;5.342;2023-10-31T08:26:11;15.30;71.20
19281;DHT22;9774;52.034;5.342;2023-10-31T08:28:39;15.40;71.20
19281;DHT22;9774;52.034;5.342;2023-10-31T08:31:06;15.40;71.30
19281;DHT22;9774;52.034;5.342;2023-10-31T08:33:33;15.50;71.60
19281;DHT22;9774;52.034;5.342;2023-10-31T08:36:00;15.50;71.60
19281;DHT22;9774;52.034;5.342;2023-10-31T08:38:27;15.60;71.70
19281;DHT22;9774;52.034;5.342;2023-10-31T08:40:58;15.60;71.60
19281;DHT22;9774;52.034;5.342;2023-10-31T08:43:25;15.70;71.50
19281;DHT22;9774;52.034;5.342;2023-10-31T08:45:52;15.70;71.30
19281;DHT22;9774;52.034;5.342;2023-10-31T08:48:19;15.80;71.10
19281;DHT22;9774;52.034;5.342;2023-10-31T08:50:47;15.80;71.00
19281;DHT22;9774;52.034;5.342;2023-10-31T08:53:14;15.80;70.90
19281;DHT22;9774;52.034;5.342;2023-10-31T08:55:42;15.80;70.90
19281;DHT22;9774;52.034;5.342;2023-10-31T08:58:11;15.80;70.90
19281;DHT22;9774;52.034;5.342;2023-10-31T09:00:38;15.80;70.90
19281;DHT22;9774;52.034;5.342;2023-10-31T09:03:06;15.90;70.90
19281;DHT22;9774;52.034;5.342;2023-10-31T09:05:33;15.90;71.00
19281;DHT22;9774;52.034;5.342;2023-10-31T09:08:00;15.90;71.00
19281;DHT22;9774;52.034;5.342;2023-10-31T09:10:27;15.90;71.00
19281;DHT22;9774;52.034;5.342;2023-10-31T09:12:54;15.90;71.00
19281;DHT22;9774;52.034;5.342;2023-10-31T09:15:23;15.90;71.10
19281;DHT22;9774;52.034;5.342;2023-10-31T09:17:50;16.00;71.20
19281;DHT22;9774;52.034;5.342;2023-10-31T09:20:17;16.00;71.30
19281;DHT22;9774;52.034;5.342;2023-10-31T09:22:44;16.10;71.40
19281;DHT22;9774;52.034;5.342;2023-10-31T09:25:11;16.10;71.40
19281;DHT22;9774;52.034;5.342;2023-10-31T09:27:38;16.20;71.40
19281;DHT22;9774;52.034;5.342;2023-10-31T09:30:07;16.20;71.30
19281;DHT22;9774;52.034;5.342;2023-10-31T09:32:36;16.20;71.30
19281;DHT22;9774;52.034;5.342;2023-10-31T09:35:03;16.30;71.30
19281;DHT22;9774;52.034;5.342;2023-10-31T09:37:31;16.30;71.30
19281;DHT22;9774;52.034;5.342;2023-10-31T09:39:58;16.40;71.30
19281;DHT22;9774;52.034;5.342;2023-10-31T09:42:25;16.40;71.30
19281;DHT22;9774;52.034;5.342;2023-10-31T09:44:52;16.50;71.30
19281;DHT22;9774;52.034;5.342;2023-10-31T09:47:20;16.50;71.30
19281;DHT22;9774;52.034;5.342;2023-10-31T09:49:50;16.60;71.50
19281;DHT22;9774;52.034;5.342;2023-10-31T09:52:17;16.60;71.40
19281;DHT22;9774;52.034;5.342;2023-10-31T09:54:46;16.70;71.30
19281;DHT22;9774;52.034;5.342;2023-10-31T09:57:15;16.70;71.00
19281;DHT22;9774;52.034;5.342;2023-10-31T09:59:43;16.80;71.00
19281;DHT22;9774;52.034;5.342;2023-10-31T10:02:10;16.80;71.00
19281;DHT22;9774;52.034;5.342;2023-10-31T10:04:37;16.90;71.20
19281;DHT22;9774;52.034;5.342;2023-10-31T10:07:06;17.00;71.30
19281;DHT22;9774;52.034;5.342;2023-10-31T10:09:33;17.00;71.40
19281;DHT22;9774;52.034;5.342;2023-10-31T10:12:01;17.10;71.30
19281;DHT22;9774;52.034;5.342;2023-10-31T10:14:29;17.20;71.00
19281;DHT22;9774;52.034;5.342;2023-10-31T10:16:57;17.20;70.60
19281;DHT22;9774;52.034;5.342;2023-10-31T10:19:24;17.30;70.40
19281;DHT22;9774;52.034;5.342;2023-10-31T10:21:52;17.20;70.10
19281;DHT22;9774;52.034;5.342;2023-10-31T10:24:22;17.30;70.10
19281;DHT22;9774;52.034;5.342;2023-10-31T10:26:51;17.30;70.20
19281;DHT22;9774;52.034;5.342;2023-10-31T10:29:18;17.30;70.30
19281;DHT22;9774;52.034;5.342;2023-10-31T10:31:45;17.30;70.50
19281;DHT22;9774;52.034;5.342;2023-10-31T10:34:14;17.40;70.50
19281;DHT22;9774;52.034;5.342;2023-10-31T10:36:46;17.50;70.70
19281;DHT22;9774;52.034;5.342;2023-10-31T10:39:18;17.50;70.80
19281;DHT22;9774;52.034;5.342;2023-10-31T10:41:52;17.60;70.60
19281;DHT22;9774;52.034;5.342;2023-10-31T10:44:27;17.70;70.50
19281;DHT22;9774;52.034;5.342;2023-10-31T10:47:01;17.80;70.60
19281;DHT22;9774;52.034;5.342;2023-10-31T10:49:33;17.90;70.50
19281;DHT22;9774;52.034;5.342;2023-10-31T10:52:14;18.00;70.30
19281;DHT22;9774;52.034;5.342;2023-10-31T10:54:53;18.00;70.00
19281;DHT22;9774;52.034;5.342;2023-10-31T10:57:32;18.10;70.00
19281;DHT22;9774;52.034;5.342;2023-10-31T11:00:06;18.20;70.00
19281;DHT22;9774;52.034;5.342;2023-10-31T11:02:39;18.20;70.20
19281;DHT22;9774;52.034;5.342;2023-10-31T11:05:08;18.30;70.00
19281;DHT22;9774;52.034;5.342;2023-10-31T11:07:37;18.40;69.90
19281;DHT22;9774;52.034;5.342;2023-10-31T11:10:05;18.40;69.80
19281;DHT22;9774;52.034;5.342;2023-10-31T11:12:37;18.50;69.60
19281;DHT22;9774;52.034;5.342;2023-10-31T11:15:06;18.60;69.50
19281;DHT22;9774;52.034;5.342;2023-10-31T11:17:37;18.60;69.30
19281;DHT22;9774;52.034;5.342;2023-10-31T11:20:08;18.70;69.20
19281;DHT22;9774;52.034;5.342;2023-10-31T11:22:37;18.70;69.10
19281;DHT22;9774;52.034;5.342;2023-10-31T11:25:07;18.80;69.00
19281;DHT22;9774;52.034;5.342;2023-10-31T11:27:36;18.80;69.00
19281;DHT22;9774;52.034;5.342;2023-10-31T11:30:06;18.90;68.90
19281;DHT22;9774;52.034;5.342;2023-10-31T11:32:34;18.90;68.70
19281;DHT22;9774;52.034;5.342;2023-10-31T11:35:01;19.00;68.70
19281;DHT22;9774;52.034;5.342;2023-10-31T11:37:32;19.00;68.60
19281;DHT22;9774;52.034;5.342;2023-10-31T11:40:28;19.00;68.20
19281;DHT22;9774;52.034;5.342;2023-10-31T11:42:59;19.10;67.50
19281;DHT22;9774;52.034;5.342;2023-10-31T11:45:33;19.10;67.90
19281;DHT22;9774;52.034;5.342;2023-10-31T11:48:02;19.10;67.70
19281;DHT22;9774;52.034;5.342;2023-10-31T11:50:31;19.10;67.40
19281;DHT22;9774;52.034;5.342;2023-10-31T11:53:05;19.10;67.10
19281;DHT22;9774;52.034;5.342;2023-10-31T11:55:34;19.10;66.90
19281;DHT22;9774;52.034;5.342;2023-10-31T11:58:17;19.10;66.90
19281;DHT22;9774;52.034;5.342;2023-10-31T12:00:45;19.00;66.40
19281;DHT22;9774;52.034;5.342;2023-10-31T12:03:15;19.00;66.80
19281;DHT22;9774;52.034;5.342;2023-10-31T12:05:51;18.90;66.70
19281;DHT22;9774;52.034;5.342;2023-10-31T12:08:27;18.90;66.40
19281;DHT22;9774;52.034;5.342;2023-10-31T12:11:06;18.80;66.60
19281;DHT22;9774;52.034;5.342;2023-10-31T12:13:37;18.80;66.30
19281;DHT22;9774;52.034;5.342;2023-10-31T12:16:06;18.80;66.70
19281;DHT22;9774;52.034;5.342;2023-10-31T12:18:34;18.70;66.70
19281;DHT22;9774;52.034;5.342;2023-10-31T12:21:02;18.70;66.80
19281;DHT22;9774;52.034;5.342;2023-10-31T12:23:30;18.70;66.90
19281;DHT22;9774;52.034;5.342;2023-10-31T12:25:57;18.70;66.70
19281;DHT22;9774;52.034;5.342;2023-10-31T12:28:25;18.60;66.50
19281;DHT22;9774;52.034;5.342;2023-10-31T12:30:55;18.60;66.40
19281;DHT22;9774;52.034;5.342;2023-10-31T12:33:26;18.50;66.30
19281;DHT22;9774;52.034;5.342;2023-10-31T12:35:57;18.50;66.30
19281;DHT22;9774;52.034;5.342;2023-10-31T12:38:25;18.40;66.30
19281;DHT22;9774;52.034;5.342;2023-10-31T12:40:53;18.40;66.40
19281;DHT22;9774;52.034;5.342;2023-10-31T12:43:23;18.40;66.30
19281;DHT22;9774;52.034;5.342;2023-10-31T12:45:52;18.30;66.50
19281;DHT22;9774;52.034;5.342;2023-10-31T12:48:24;18.30;67.40
19281;DHT22;9774;52.034;5.342;2023-10-31T12:51:06;18.30;66.70
19281;DHT22;9774;52.034;5.342;2023-10-31T12:53:34;18.30;66.60
19281;DHT22;9774;52.034;5.342;2023-10-31T12:56:01;18.30;66.80
19281;DHT22;9774;52.034;5.342;2023-10-31T12:58:28;18.30;66.80
19281;DHT22;9774;52.034;5.342;2023-10-31T13:00:55;18.20;66.60
19281;DHT22;9774;52.034;5.342;2023-10-31T13:03:24;18.20;66.60
19281;DHT22;9774;52.034;5.342;2023-10-31T13:05:51;18.20;66.70
19281;DHT22;9774;52.034;5.342;2023-10-31T13:08:18;18.10;66.60
19281;DHT22;9774;52.034;5.342;2023-10-31T13:10:45;18.10;67.00
19281;DHT22;9774;52.034;5.342;2023-10-31T13:13:12;18.20;67.50
19281;DHT22;9774;52.034;5.342;2023-10-31T13:15:39;18.20;67.50
19281;DHT22;9774;52.034;5.342;2023-10-31T13:18:07;18.30;67.40
19281;DHT22;9774;52.034;5.342;2023-10-31T13:20:38;18.30;67.40
19281;DHT22;9774;52.034;5.342;2023-10-31T13:23:04;18.40;67.00
19281;DHT22;9774;52.034;5.342;2023-10-31T13:25:32;18.40;66.40
19281;DHT22;9774;52.034;5.342;2023-10-31T13:27:59;18.40;66.20
19281;DHT22;9774;52.034;5.342;2023-10-31T13:30:26;18.40;66.20
19281;DHT22;9774;52.034;5.342;2023-10-31T13:32:53;18.30;66.00
19281;DHT22;9774;52.034;5.342;2023-10-31T13:35:22;18.30;65.80
19281;DHT22;9774;52.034;5.342;2023-10-31T13:37:51;18.20;65.60
19281;DHT22;9774;52.034;5.342;2023-10-31T13:40:18;18.20;65.50
19281;DHT22;9774;52.034;5.342;2023-10-31T13:42:45;18.10;65.60
19281;DHT22;9774;52.034;5.342;2023-10-31T13:45:12;18.10;65.70
19281;DHT22;9774;52.034;5.342;2023-10-31T13:47:39;18.00;65.60
19281;DHT22;9774;52.034;5.342;2023-10-31T13:50:07;18.00;65.80
19281;DHT22;9774;52.034;5.342;2023-10-31T13:52:34;18.00;65.90
19281;DHT22;9774;52.034;5.342;2023-10-31T13:55:02;17.90;66.20
19281;DHT22;9774;52.034;5.342;2023-10-31T13:57:30;17.90;66.10
19281;DHT22;9774;52.034;5.342;2023-10-31T13:59:57;17.90;66.30
19281;DHT22;9774;52.034;5.342;2023-10-31T14:02:25;17.80;66.40
19281;DHT22;9774;52.034;5.342;2023-10-31T14:04:55;17.80;66.20
19281;DHT22;9774;52.034;5.342;2023-10-31T14:07:22;17.80;66.10
19281;DHT22;9774;52.034;5.342;2023-10-31T14:09:49;17.80;66.10
19281;DHT22;9774;52.034;5.342;2023-10-31T14:12:19;17.80;66.20
19281;DHT22;9774;52.034;5.342;2023-10-31T14:14:46;17.70;66.10
19281;DHT22;9774;52.034;5.342;2023-10-31T14:17:14;17.70;66.20
19281;DHT22;9774;52.034;5.342;2023-10-31T14:19:42;17.70;66.20
19281;DHT22;9774;52.034;5.342;2023-10-31T14:22:09;17.60;66.40
19281;DHT22;9774;52.034;5.342;2023-10-31T14:24:38;17.60;66.30
19281;DHT22;9774;52.034;5.342;2023-10-31T14:27:05;17.60;66.40
19281;DHT22;9774;52.034;5.342;2023-10-31T14:29:34;17.60;66.40
19281;DHT22;9774;52.034;5.342;2023-10-31T14:32:06;17.60;66.50
19281;DHT22;9774;52.034;5.342;2023-10-31T14:34:33;17.50;66.40
19281;DHT22;9774;52.034;5.342;2023-10-31T14:37:00;17.50;66.30
19281;DHT22;9774;52.034;5.342;2023-10-31T14:39:27;17.40;66.30
19281;DHT22;9774;52.034;5.342;2023-10-31T14:41:54;17.40;66.20
19281;DHT22;9774;52.034;5.342;2023-10-31T14:44:21;17.40;66.30
19281;DHT22;9774;52.034;5.342;2023-10-31T14:46:49;17.40;66.30
19281;DHT22;9774;52.034;5.342;2023-10-31T14:49:18;17.30;66.30
19281;DHT22;9774;52.034;5.342;2023-10-31T14:51:44;17.30;66.40
19281;DHT22;9774;52.034;5.342;2023-10-31T14:54:12;17.20;66.30
19281;DHT22;9774;52.034;5.342;2023-10-31T14:56:39;17.20;66.40
19281;DHT22;9774;52.034;5.342;2023-10-31T14:59:07;17.10;66.40
19281;DHT22;9774;52.034;5.342;2023-10-31T15:01:34;17.10;66.50
19281;DHT22;9774;52.034;5.342;2023-10-31T15:04:03;17.10;66.50
19281;DHT22;9774;52.034;5.342;2023-10-31T15:06:30;17.10;66.40
19281;DHT22;9774;52.034;5.342;2023-10-31T15:08:57;17.00;66.40
19281;DHT22;9774;52.034;5.342;2023-10-31T15:11:24;17.00;66.50
19281;DHT22;9774;52.034;5.342;2023-10-31T15:13:51;16.90;66.50
19281;DHT22;9774;52.034;5.342;2023-10-31T15:16:18;16.90;66.70
19281;DHT22;9774;52.034;5.342;2023-10-31T15:18:45;16.80;66.50
19281;DHT22;9774;52.034;5.342;2023-10-31T15:21:13;16.80;66.60
19281;DHT22;9774;52.034;5.342;2023-10-31T15:23:41;16.70;66.70
19281;DHT22;9774;52.034;5.342;2023-10-31T15:26:07;16.70;66.80
19281;DHT22;9774;52.034;5.342;2023-10-31T15:28:38;16.70;66.90
19281;DHT22;9774;52.034;5.342;2023-10-31T15:31:06;16.60;66.90
19281;DHT22;9774;52.034;5.342;2023-10-31T15:33:33;16.60;67.00
19281;DHT22;9774;52.034;5.342;2023-10-31T15:36:00;16.60;67.10
19281;DHT22;9774;52.034;5.342;2023-10-31T15:38:28;16.50;67.10
19281;DHT22;9774;52.034;5.342;2023-10-31T15:40:55;16.50;67.10
19281;DHT22;9774;52.034;5.342;2023-10-31T15:43:22;16.40;67.20
19281;DHT22;9774;52.034;5.342;2023-10-31T15:45:49;16.40;67.40
19281;DHT22;9774;52.034;5.342;2023-10-31T15:48:16;16.40;67.50
19281;DHT22;9774;52.034;5.342;2023-10-31T15:50:44;16.40;67.50